sensor_id;sensor_type;location;lat;lon;timestamp;P1;durP1;ratioP1;P2;durP2;ratioP2
12124;SDS011;6126;57.908;16.490;2022-09-16T00:00:26;0.75;;;0.43;;
12124;SDS011;6126;57.908;16.490;2022-09-16T00:02:52;0.30;;;0.30;;
12124;SDS011;6126;57.908;16.490;2022-09-16T00:05:19;0.40;;;0.40;;
12124;SDS011;6126;57.908;16.490;2022-09-16T00:07:46;0.25;;;0.25;;
12124;SDS011;6126;57.908;16.490;2022-09-16T00:10:12;1.42;;;0.30;;
12124;SDS011;6126;57.908;16.490;2022-09-16T00:12:38;0.40;;;0.40;;
12124;SDS011;6126;57.908;16.490;2022-09-16T00:15:05;2.45;;;0.40;;
12124;SDS011;6126;57.908;16.490;2022-09-16T00:17:32;0.30;;;0.30;;
12124;SDS011;6126;57.908;16.490;2022-09-16T00:19:58;0.43;;;0.32;;
12124;SDS011;6126;57.908;16.490;2022-09-16T00:22:26;0.40;;;0.40;;
12124;SDS011;6126;57.908;16.490;2022-09-16T00:24:52;0.30;;;0.30;;
12124;SDS011;6126;57.908;16.490;2022-09-16T00:27:18;0.65;;;0.40;;
12124;SDS011;6126;57.908;16.490;2022-09-16T00:29:44;1.00;;;0.40;;
12124;SDS011;6126;57.908;16.490;2022-09-16T00:32:10;0.30;;;0.30;;
12124;SDS011;6126;57.908;16.490;2022-09-16T00:34:37;0.30;;;0.30;;
12124;SDS011;6126;57.908;16.490;2022-09-16T00:37:03;1.17;;;0.75;;
12124;SDS011;6126;57.908;16.490;2022-09-16T00:39:32;4.85;;;0.82;;
12124;SDS011;6126;57.908;16.490;2022-09-16T00:41:59;2.88;;;0.40;;
12124;SDS011;6126;57.908;16.490;2022-09-16T00:47:34;1.40;;;0.40;;
12124;SDS011;6126;57.908;16.490;2022-09-16T00:50:17;0.30;;;0.30;;
12124;SDS011;6126;57.908;16.490;2022-09-16T00:53:02;0.70;;;0.40;;
12124;SDS011;6126;57.908;16.490;2022-09-16T00:55:31;0.52;;;0.30;;
12124;SDS011;6126;57.908;16.490;2022-09-16T00:58:05;1.30;;;0.38;;
12124;SDS011;6126;57.908;16.490;2022-09-16T01:00:44;0.30;;;0.30;;
12124;SDS011;6126;57.908;16.490;2022-09-16T01:03:10;0.75;;;0.45;;
12124;SDS011;6126;57.908;16.490;2022-09-16T01:05:36;0.60;;;0.50;;
12124;SDS011;6126;57.908;16.490;2022-09-16T01:08:03;0.52;;;0.52;;
12124;SDS011;6126;57.908;16.490;2022-09-16T01:10:29;0.22;;;0.22;;
12124;SDS011;6126;57.908;16.490;2022-09-16T01:13:00;1.05;;;0.50;;
12124;SDS011;6126;57.908;16.490;2022-09-16T01:15:32;0.90;;;0.38;;
12124;SDS011;6126;57.908;16.490;2022-09-16T01:18:12;0.45;;;0.38;;
12124;SDS011;6126;57.908;16.490;2022-09-16T01:37:30;0.40;;;0.40;;
12124;SDS011;6126;57.908;16.490;2022-09-16T01:40:32;0.40;;;0.40;;
12124;SDS011;6126;57.908;16.490;2022-09-16T01:48:22;0.35;;;0.35;;
12124;SDS011;6126;57.908;16.490;2022-09-16T01:57:05;0.77;;;0.30;;
12124;SDS011;6126;57.908;16.490;2022-09-16T02:00:08;0.30;;;0.30;;
12124;SDS011;6126;57.908;16.490;2022-09-16T02:05:21;0.50;;;0.40;;
12124;SDS011;6126;57.908;16.490;2022-09-16T02:08:09;0.30;;;0.30;;
12124;SDS011;6126;57.908;16.490;2022-09-16T02:10:51;0.40;;;0.40;;
12124;SDS011;6126;57.908;16.490;2022-09-16T02:13:42;0.98;;;0.50;;
12124;SDS011;6126;57.908;16.490;2022-09-16T02:16:25;1.55;;;0.50;;
12124;SDS011;6126;57.908;16.490;2022-09-16T02:19:11;0.35;;;0.35;;
12124;SDS011;6126;57.908;16.490;2022-09-16T02:21:52;0.30;;;0.30;;
12124;SDS011;6126;57.908;16.490;2022-09-16T02:24:21;0.40;;;0.30;;
12124;SDS011;6126;57.908;16.490;2022-09-16T02:26:59;0.40;;;0.40;;
12124;SDS011;6126;57.908;16.490;2022-09-16T02:29:36;0.70;;;0.38;;
12124;SDS011;6126;57.908;16.490;2022-09-16T02:32:16;1.27;;;0.40;;
12124;SDS011;6126;57.908;16.490;2022-09-16T02:34:47;0.25;;;0.25;;
12124;SDS011;6126;57.908;16.490;2022-09-16T02:37:27;0.70;;;0.40;;
12124;SDS011;6126;57.908;16.490;2022-09-16T02:40:05;1.15;;;0.50;;
12124;SDS011;6126;57.908;16.490;2022-09-16T02:42:40;0.45;;;0.35;;
12124;SDS011;6126;57.908;16.490;2022-09-16T02:45:06;0.40;;;0.30;;
12124;SDS011;6126;57.908;16.490;2022-09-16T02:50:21;0.30;;;0.30;;
12124;SDS011;6126;57.908;16.490;2022-09-16T02:53:01;0.30;;;0.30;;
12124;SDS011;6126;57.908;16.490;2022-09-16T02:58:20;0.38;;;0.38;;
12124;SDS011;6126;57.908;16.490;2022-09-16T03:00:47;0.30;;;0.30;;
12124;SDS011;6126;57.908;16.490;2022-09-16T03:03:17;2.90;;;0.40;;
12124;SDS011;6126;57.908;16.490;2022-09-16T03:08:27;0.20;;;0.20;;
12124;SDS011;6126;57.908;16.490;2022-09-16T03:10:54;1.27;;;0.38;;
12124;SDS011;6126;57.908;16.490;2022-09-16T03:14:03;3.42;;;0.40;;
12124;SDS011;6126;57.908;16.490;2022-09-16T03:16:57;0.40;;;0.40;;
12124;SDS011;6126;57.908;16.490;2022-09-16T03:25:02;0.20;;;0.20;;
12124;SDS011;6126;57.908;16.490;2022-09-16T03:27:50;0.30;;;0.30;;
12124;SDS011;6126;57.908;16.490;2022-09-16T03:30:23;0.57;;;0.40;;
12124;SDS011;6126;57.908;16.490;2022-09-16T03:37:56;0.20;;;0.20;;
12124;SDS011;6126;57.908;16.490;2022-09-16T03:40:24;0.50;;;0.38;;
12124;SDS011;6126;57.908;16.490;2022-09-16T03:42:54;0.45;;;0.32;;
12124;SDS011;6126;57.908;16.490;2022-09-16T03:45:22;0.20;;;0.20;;
12124;SDS011;6126;57.908;16.490;2022-09-16T03:47:49;0.63;;;0.50;;
12124;SDS011;6126;57.908;16.490;2022-09-16T03:50:17;0.30;;;0.30;;
12124;SDS011;6126;57.908;16.490;2022-09-16T03:52:45;1.55;;;0.30;;
12124;SDS011;6126;57.908;16.490;2022-09-16T03:55:11;0.30;;;0.30;;
12124;SDS011;6126;57.908;16.490;2022-09-16T03:57:38;0.98;;;0.30;;
12124;SDS011;6126;57.908;16.490;2022-09-16T04:00:04;0.65;;;0.40;;
12124;SDS011;6126;57.908;16.490;2022-09-16T04:02:32;0.20;;;0.20;;
12124;SDS011;6126;57.908;16.490;2022-09-16T04:04:58;0.52;;;0.20;;
12124;SDS011;6126;57.908;16.490;2022-09-16T04:07:24;0.25;;;0.25;;
12124;SDS011;6126;57.908;16.490;2022-09-16T04:09:50;0.43;;;0.40;;
12124;SDS011;6126;57.908;16.490;2022-09-16T04:12:16;0.28;;;0.28;;
12124;SDS011;6126;57.908;16.490;2022-09-16T04:14:42;0.47;;;0.40;;
12124;SDS011;6126;57.908;16.490;2022-09-16T04:17:07;0.20;;;0.20;;
12124;SDS011;6126;57.908;16.490;2022-09-16T04:19:33;1.65;;;0.30;;
12124;SDS011;6126;57.908;16.490;2022-09-16T04:21:59;0.25;;;0.25;;
12124;SDS011;6126;57.908;16.490;2022-09-16T04:24:25;0.22;;;0.22;;
12124;SDS011;6126;57.908;16.490;2022-09-16T04:26:51;0.57;;;0.28;;
12124;SDS011;6126;57.908;16.490;2022-09-16T04:29:17;0.30;;;0.30;;
12124;SDS011;6126;57.908;16.490;2022-09-16T04:31:43;0.90;;;0.40;;
12124;SDS011;6126;57.908;16.490;2022-09-16T04:34:09;0.32;;;0.20;;
12124;SDS011;6126;57.908;16.490;2022-09-16T04:36:37;0.20;;;0.20;;
12124;SDS011;6126;57.908;16.490;2022-09-16T04:39:04;0.43;;;0.35;;
12124;SDS011;6126;57.908;16.490;2022-09-16T04:41:30;0.40;;;0.40;;
12124;SDS011;6126;57.908;16.490;2022-09-16T04:43:57;0.52;;;0.20;;
12124;SDS011;6126;57.908;16.490;2022-09-16T04:46:25;0.22;;;0.20;;
12124;SDS011;6126;57.908;16.490;2022-09-16T04:48:53;0.20;;;0.20;;
12124;SDS011;6126;57.908;16.490;2022-09-16T04:51:22;1.48;;;0.22;;
12124;SDS011;6126;57.908;16.490;2022-09-16T04:53:51;0.30;;;0.30;;
12124;SDS011;6126;57.908;16.490;2022-09-16T04:56:21;0.30;;;0.30;;
12124;SDS011;6126;57.908;16.490;2022-09-16T04:58:50;0.30;;;0.30;;
12124;SDS011;6126;57.908;16.490;2022-09-16T05:01:20;0.40;;;0.40;;
12124;SDS011;6126;57.908;16.490;2022-09-16T05:03:53;0.30;;;0.30;;
12124;SDS011;6126;57.908;16.490;2022-09-16T05:06:24;2.08;;;0.57;;
12124;SDS011;6126;57.908;16.490;2022-09-16T05:08:58;0.22;;;0.22;;
12124;SDS011;6126;57.908;16.490;2022-09-16T05:11:26;0.32;;;0.32;;
12124;SDS011;6126;57.908;16.490;2022-09-16T05:13:58;0.20;;;0.20;;
12124;SDS011;6126;57.908;16.490;2022-09-16T05:16:27;0.20;;;0.20;;
12124;SDS011;6126;57.908;16.490;2022-09-16T05:18:54;0.50;;;0.20;;
12124;SDS011;6126;57.908;16.490;2022-09-16T05:21:23;0.20;;;0.20;;
12124;SDS011;6126;57.908;16.490;2022-09-16T05:23:51;0.20;;;0.20;;
12124;SDS011;6126;57.908;16.490;2022-09-16T05:26:24;0.20;;;0.20;;
12124;SDS011;6126;57.908;16.490;2022-09-16T05:28:53;0.30;;;0.30;;
12124;SDS011;6126;57.908;16.490;2022-09-16T05:31:20;0.20;;;0.20;;
12124;SDS011;6126;57.908;16.490;2022-09-16T05:33:53;0.65;;;0.30;;
12124;SDS011;6126;57.908;16.490;2022-09-16T05:36:21;0.20;;;0.20;;
12124;SDS011;6126;57.908;16.490;2022-09-16T05:38:48;0.22;;;0.22;;
12124;SDS011;6126;57.908;16.490;2022-09-16T05:41:14;0.20;;;0.20;;
12124;SDS011;6126;57.908;16.490;2022-09-16T05:43:40;0.25;;;0.25;;
12124;SDS011;6126;57.908;16.490;2022-09-16T05:46:06;0.20;;;0.20;;
12124;SDS011;6126;57.908;16.490;2022-09-16T05:48:37;0.40;;;0.40;;
12124;SDS011;6126;57.908;16.490;2022-09-16T05:51:04;0.30;;;0.30;;
12124;SDS011;6126;57.908;16.490;2022-09-16T05:53:31;2.42;;;0.60;;
12124;SDS011;6126;57.908;16.490;2022-09-16T05:56:03;1.98;;;1.30;;
12124;SDS011;6126;57.908;16.490;2022-09-16T05:58:33;0.70;;;0.70;;
12124;SDS011;6126;57.908;16.490;2022-09-16T06:01:07;2.05;;;0.30;;
12124;SDS011;6126;57.908;16.490;2022-09-16T06:03:39;0.70;;;0.70;;
12124;SDS011;6126;57.908;16.490;2022-09-16T06:08:59;0.20;;;0.20;;
12124;SDS011;6126;57.908;16.490;2022-09-16T06:11:37;0.32;;;0.32;;
12124;SDS011;6126;57.908;16.490;2022-09-16T06:14:06;0.30;;;0.30;;
12124;SDS011;6126;57.908;16.490;2022-09-16T06:16:33;0.30;;;0.30;;
12124;SDS011;6126;57.908;16.490;2022-09-16T06:19:00;0.40;;;0.40;;
12124;SDS011;6126;57.908;16.490;2022-09-16T06:21:34;0.20;;;0.20;;
12124;SDS011;6126;57.908;16.490;2022-09-16T06:24:01;0.43;;;0.43;;
12124;SDS011;6126;57.908;16.490;2022-09-16T06:26:27;0.57;;;0.40;;
12124;SDS011;6126;57.908;16.490;2022-09-16T06:28:54;0.40;;;0.40;;
12124;SDS011;6126;57.908;16.490;2022-09-16T06:31:21;0.95;;;0.93;;
12124;SDS011;6126;57.908;16.490;2022-09-16T06:33:52;0.95;;;0.50;;
12124;SDS011;6126;57.908;16.490;2022-09-16T06:38:47;0.30;;;0.30;;
12124;SDS011;6126;57.908;16.490;2022-09-16T06:41:14;0.30;;;0.30;;
12124;SDS011;6126;57.908;16.490;2022-09-16T06:43:41;1.17;;;0.30;;
12124;SDS011;6126;57.908;16.490;2022-09-16T06:48:38;0.32;;;0.32;;
12124;SDS011;6126;57.908;16.490;2022-09-16T06:51:06;0.35;;;0.20;;
12124;SDS011;6126;57.908;16.490;2022-09-16T06:53:35;0.30;;;0.30;;
12124;SDS011;6126;57.908;16.490;2022-09-16T06:56:02;0.30;;;0.30;;
12124;SDS011;6126;57.908;16.490;2022-09-16T06:58:35;0.20;;;0.20;;
12124;SDS011;6126;57.908;16.490;2022-09-16T07:01:10;0.63;;;0.20;;
12124;SDS011;6126;57.908;16.490;2022-09-16T07:03:39;0.30;;;0.30;;
12124;SDS011;6126;57.908;16.490;2022-09-16T07:06:12;0.30;;;0.30;;
12124;SDS011;6126;57.908;16.490;2022-09-16T07:08:40;0.20;;;0.20;;
12124;SDS011;6126;57.908;16.490;2022-09-16T07:11:09;0.20;;;0.20;;
12124;SDS011;6126;57.908;16.490;2022-09-16T07:13:43;0.30;;;0.30;;
12124;SDS011;6126;57.908;16.490;2022-09-16T07:16:14;0.50;;;0.50;;
12124;SDS011;6126;57.908;16.490;2022-09-16T07:18:43;0.47;;;0.47;;
12124;SDS011;6126;57.908;16.490;2022-09-16T07:21:11;0.38;;;0.38;;
12124;SDS011;6126;57.908;16.490;2022-09-16T07:23:41;0.20;;;0.20;;
12124;SDS011;6126;57.908;16.490;2022-09-16T07:26:12;0.20;;;0.20;;
12124;SDS011;6126;57.908;16.490;2022-09-16T07:28:44;0.20;;;0.20;;
12124;SDS011;6126;57.908;16.490;2022-09-16T07:31:13;0.30;;;0.30;;
12124;SDS011;6126;57.908;16.490;2022-09-16T07:33:45;0.30;;;0.30;;
12124;SDS011;6126;57.908;16.490;2022-09-16T07:36:14;0.28;;;0.28;;
12124;SDS011;6126;57.908;16.490;2022-09-16T07:38:46;0.30;;;0.30;;
12124;SDS011;6126;57.908;16.490;2022-09-16T07:41:20;0.20;;;0.20;;
12124;SDS011;6126;57.908;16.490;2022-09-16T07:43:48;0.20;;;0.20;;
12124;SDS011;6126;57.908;16.490;2022-09-16T07:46:16;0.20;;;0.20;;
12124;SDS011;6126;57.908;16.490;2022-09-16T07:48:44;0.20;;;0.20;;
12124;SDS011;6126;57.908;16.490;2022-09-16T07:51:13;0.30;;;0.30;;
12124;SDS011;6126;57.908;16.490;2022-09-16T07:53:44;0.65;;;0.28;;
12124;SDS011;6126;57.908;16.490;2022-09-16T07:56:12;0.20;;;0.20;;
12124;SDS011;6126;57.908;16.490;2022-09-16T07:58:42;1.38;;;0.38;;
12124;SDS011;6126;57.908;16.490;2022-09-16T08:01:10;0.25;;;0.25;;
12124;SDS011;6126;57.908;16.490;2022-09-16T08:03:39;1.10;;;0.30;;
12124;SDS011;6126;57.908;16.490;2022-09-16T08:06:08;0.68;;;0.35;;
12124;SDS011;6126;57.908;16.490;2022-09-16T08:08:40;0.30;;;0.30;;
12124;SDS011;6126;57.908;16.490;2022-09-16T08:11:07;0.35;;;0.35;;
12124;SDS011;6126;57.908;16.490;2022-09-16T08:13:35;0.40;;;0.30;;
12124;SDS011;6126;57.908;16.490;2022-09-16T08:16:20;0.57;;;0.30;;
12124;SDS011;6126;57.908;16.490;2022-09-16T08:18:48;0.30;;;0.30;;
12124;SDS011;6126;57.908;16.490;2022-09-16T08:21:19;2.38;;;0.30;;
12124;SDS011;6126;57.908;16.490;2022-09-16T08:23:52;1.55;;;0.30;;
12124;SDS011;6126;57.908;16.490;2022-09-16T08:26:18;0.30;;;0.30;;
12124;SDS011;6126;57.908;16.490;2022-09-16T08:28:45;0.30;;;0.30;;
12124;SDS011;6126;57.908;16.490;2022-09-16T08:31:13;0.20;;;0.20;;
12124;SDS011;6126;57.908;16.490;2022-09-16T08:33:40;0.30;;;0.30;;
12124;SDS011;6126;57.908;16.490;2022-09-16T08:38:36;0.38;;;0.30;;
12124;SDS011;6126;57.908;16.490;2022-09-16T08:47:01;0.25;;;0.25;;
12124;SDS011;6126;57.908;16.490;2022-09-16T08:49:37;0.63;;;0.52;;
12124;SDS011;6126;57.908;16.490;2022-09-16T08:52:11;0.40;;;0.40;;
12124;SDS011;6126;57.908;16.490;2022-09-16T08:54:44;0.35;;;0.35;;
12124;SDS011;6126;57.908;16.490;2022-09-16T08:57:22;0.40;;;0.40;;
12124;SDS011;6126;57.908;16.490;2022-09-16T08:59:57;0.20;;;0.20;;
12124;SDS011;6126;57.908;16.490;2022-09-16T09:05:40;0.20;;;0.20;;
12124;SDS011;6126;57.908;16.490;2022-09-16T09:11:44;0.30;;;0.30;;
12124;SDS011;6126;57.908;16.490;2022-09-16T09:14:28;0.35;;;0.30;;
12124;SDS011;6126;57.908;16.490;2022-09-16T09:26:20;0.32;;;0.30;;
12124;SDS011;6126;57.908;16.490;2022-09-16T09:43:17;0.30;;;0.30;;
12124;SDS011;6126;57.908;16.490;2022-09-16T09:48:49;0.30;;;0.30;;
12124;SDS011;6126;57.908;16.490;2022-09-16T09:51:50;0.38;;;0.38;;
12124;SDS011;6126;57.908;16.490;2022-09-16T09:54:28;2.85;;;0.40;;
12124;SDS011;6126;57.908;16.490;2022-09-16T09:57:02;0.73;;;0.40;;
12124;SDS011;6126;57.908;16.490;2022-09-16T10:00:04;0.73;;;0.45;;
12124;SDS011;6126;57.908;16.490;2022-09-16T10:02:43;0.30;;;0.30;;
12124;SDS011;6126;57.908;16.490;2022-09-16T10:05:26;0.45;;;0.45;;
12124;SDS011;6126;57.908;16.490;2022-09-16T10:07:54;0.40;;;0.40;;
12124;SDS011;6126;57.908;16.490;2022-09-16T10:10:28;2.70;;;0.50;;
12124;SDS011;6126;57.908;16.490;2022-09-16T10:13:08;0.47;;;0.47;;
12124;SDS011;6126;57.908;16.490;2022-09-16T10:15:37;0.30;;;0.30;;
12124;SDS011;6126;57.908;16.490;2022-09-16T10:18:37;0.40;;;0.40;;
12124;SDS011;6126;57.908;16.490;2022-09-16T10:21:14;0.50;;;0.50;;
12124;SDS011;6126;57.908;16.490;2022-09-16T10:23:51;0.30;;;0.30;;
12124;SDS011;6126;57.908;16.490;2022-09-16T10:26:23;0.40;;;0.40;;
12124;SDS011;6126;57.908;16.490;2022-09-16T10:29:02;0.60;;;0.60;;
12124;SDS011;6126;57.908;16.490;2022-09-16T10:31:40;0.40;;;0.40;;
12124;SDS011;6126;57.908;16.490;2022-09-16T10:37:01;0.73;;;0.50;;
12124;SDS011;6126;57.908;16.490;2022-09-16T10:39:39;0.47;;;0.47;;
12124;SDS011;6126;57.908;16.490;2022-09-16T10:42:20;1.20;;;0.50;;
12124;SDS011;6126;57.908;16.490;2022-09-16T10:44:49;0.50;;;0.50;;
12124;SDS011;6126;57.908;16.490;2022-09-16T10:47:23;0.65;;;0.50;;
12124;SDS011;6126;57.908;16.490;2022-09-16T10:50:00;1.13;;;0.38;;
12124;SDS011;6126;57.908;16.490;2022-09-16T10:52:50;0.60;;;0.47;;
12124;SDS011;6126;57.908;16.490;2022-09-16T10:57:50;0.60;;;0.60;;
12124;SDS011;6126;57.908;16.490;2022-09-16T11:03:07;0.40;;;0.40;;
12124;SDS011;6126;57.908;16.490;2022-09-16T11:37:48;1.60;;;0.50;;
12124;SDS011;6126;57.908;16.490;2022-09-16T11:46:10;0.57;;;0.50;;
12124;SDS011;6126;57.908;16.490;2022-09-16T11:49:01;0.40;;;0.40;;
12124;SDS011;6126;57.908;16.490;2022-09-16T11:54:44;0.47;;;0.47;;
12124;SDS011;6126;57.908;16.490;2022-09-16T11:57:45;0.90;;;0.60;;
12124;SDS011;6126;57.908;16.490;2022-09-16T12:00:33;0.50;;;0.50;;
12124;SDS011;6126;57.908;16.490;2022-09-16T12:03:04;0.63;;;0.57;;
12124;SDS011;6126;57.908;16.490;2022-09-16T12:05:51;0.52;;;0.52;;
12124;SDS011;6126;57.908;16.490;2022-09-16T12:08:48;0.50;;;0.50;;
12124;SDS011;6126;57.908;16.490;2022-09-16T12:11:36;1.20;;;0.60;;
12124;SDS011;6126;57.908;16.490;2022-09-16T12:14:23;1.00;;;0.60;;
12124;SDS011;6126;57.908;16.490;2022-09-16T12:16:59;0.30;;;0.30;;
12124;SDS011;6126;57.908;16.490;2022-09-16T12:19:34;1.45;;;0.65;;
12124;SDS011;6126;57.908;16.490;2022-09-16T12:24:56;0.32;;;0.32;;
12124;SDS011;6126;57.908;16.490;2022-09-16T12:27:32;0.80;;;0.60;;
12124;SDS011;6126;57.908;16.490;2022-09-16T12:30:27;0.55;;;0.50;;
12124;SDS011;6126;57.908;16.490;2022-09-16T12:33:06;2.90;;;0.50;;
12124;SDS011;6126;57.908;16.490;2022-09-16T12:35:51;0.40;;;0.40;;
12124;SDS011;6126;57.908;16.490;2022-09-16T12:38:25;3.03;;;0.40;;
12124;SDS011;6126;57.908;16.490;2022-09-16T12:43:54;0.35;;;0.30;;
12124;SDS011;6126;57.908;16.490;2022-09-16T13:01:45;0.30;;;0.30;;
12124;SDS011;6126;57.908;16.490;2022-09-16T13:04:16;0.30;;;0.30;;
12124;SDS011;6126;57.908;16.490;2022-09-16T13:06:52;0.40;;;0.40;;
12124;SDS011;6126;57.908;16.490;2022-09-16T13:09:26;0.52;;;0.52;;
12124;SDS011;6126;57.908;16.490;2022-09-16T13:14:32;0.30;;;0.30;;
12124;SDS011;6126;57.908;16.490;2022-09-16T13:17:09;0.85;;;0.20;;
12124;SDS011;6126;57.908;16.490;2022-09-16T13:24:54;0.30;;;0.30;;
12124;SDS011;6126;57.908;16.490;2022-09-16T13:32:58;0.40;;;0.40;;
12124;SDS011;6126;57.908;16.490;2022-09-16T13:38:51;0.30;;;0.30;;
12124;SDS011;6126;57.908;16.490;2022-09-16T13:43:58;2.33;;;0.40;;
12124;SDS011;6126;57.908;16.490;2022-09-16T13:51:37;1.70;;;0.40;;
12124;SDS011;6126;57.908;16.490;2022-09-16T13:54:18;2.28;;;0.60;;
12124;SDS011;6126;57.908;16.490;2022-09-16T14:05:38;0.93;;;0.45;;
12124;SDS011;6126;57.908;16.490;2022-09-16T14:08:28;0.40;;;0.40;;
12124;SDS011;6126;57.908;16.490;2022-09-16T14:14:10;0.38;;;0.38;;
12124;SDS011;6126;57.908;16.490;2022-09-16T14:16:42;0.57;;;0.30;;
12124;SDS011;6126;57.908;16.490;2022-09-16T14:21:46;0.40;;;0.40;;
12124;SDS011;6126;57.908;16.490;2022-09-16T14:24:49;1.55;;;1.00;;
12124;SDS011;6126;57.908;16.490;2022-09-16T14:27:31;0.73;;;0.70;;
12124;SDS011;6126;57.908;16.490;2022-09-16T14:30:04;0.43;;;0.43;;
12124;SDS011;6126;57.908;16.490;2022-09-16T14:32:41;2.95;;;1.30;;
12124;SDS011;6126;57.908;16.490;2022-09-16T14:35:08;2.15;;;0.90;;
12124;SDS011;6126;57.908;16.490;2022-09-16T14:37:39;0.43;;;0.40;;
12124;SDS011;6126;57.908;16.490;2022-09-16T14:40:13;0.60;;;0.32;;
12124;SDS011;6126;57.908;16.490;2022-09-16T14:43:00;0.50;;;0.50;;
12124;SDS011;6126;57.908;16.490;2022-09-16T14:45:31;1.95;;;0.50;;
12124;SDS011;6126;57.908;16.490;2022-09-16T14:48:00;0.40;;;0.40;;
12124;SDS011;6126;57.908;16.490;2022-09-16T14:50:37;1.38;;;0.55;;
12124;SDS011;6126;57.908;16.490;2022-09-16T14:53:18;0.65;;;0.65;;
12124;SDS011;6126;57.908;16.490;2022-09-16T14:55:56;0.63;;;0.57;;
12124;SDS011;6126;57.908;16.490;2022-09-16T14:58:24;0.22;;;0.22;;
12124;SDS011;6126;57.908;16.490;2022-09-16T15:01:01;0.40;;;0.40;;
12124;SDS011;6126;57.908;16.490;2022-09-16T15:03:45;0.32;;;0.32;;
12124;SDS011;6126;57.908;16.490;2022-09-16T15:06:24;0.20;;;0.20;;
12124;SDS011;6126;57.908;16.490;2022-09-16T15:11:43;0.22;;;0.22;;
12124;SDS011;6126;57.908;16.490;2022-09-16T15:14:18;0.28;;;0.28;;
12124;SDS011;6126;57.908;16.490;2022-09-16T15:16:45;0.40;;;0.40;;
12124;SDS011;6126;57.908;16.490;2022-09-16T15:19:27;0.35;;;0.30;;
12124;SDS011;6126;57.908;16.490;2022-09-16T15:22:00;0.28;;;0.28;;
12124;SDS011;6126;57.908;16.490;2022-09-16T15:24:28;0.30;;;0.30;;
12124;SDS011;6126;57.908;16.490;2022-09-16T15:26:58;0.40;;;0.30;;
12124;SDS011;6126;57.908;16.490;2022-09-16T15:29:27;0.25;;;0.25;;
12124;SDS011;6126;57.908;16.490;2022-09-16T15:32:05;0.47;;;0.47;;
12124;SDS011;6126;57.908;16.490;2022-09-16T15:34:42;2.08;;;0.90;;
12124;SDS011;6126;57.908;16.490;2022-09-16T15:37:30;0.70;;;0.70;;
12124;SDS011;6126;57.908;16.490;2022-09-16T15:40:08;0.82;;;0.50;;
12124;SDS011;6126;57.908;16.490;2022-09-16T15:42:36;2.00;;;0.50;;
12124;SDS011;6126;57.908;16.490;2022-09-16T15:45:02;1.20;;;0.40;;
12124;SDS011;6126;57.908;16.490;2022-09-16T15:48:00;0.30;;;0.30;;
12124;SDS011;6126;57.908;16.490;2022-09-16T15:50:48;0.25;;;0.25;;
12124;SDS011;6126;57.908;16.490;2022-09-16T15:58:56;1.33;;;1.10;;
12124;SDS011;6126;57.908;16.490;2022-09-16T16:04:05;1.35;;;1.23;;
12124;SDS011;6126;57.908;16.490;2022-09-16T16:06:42;0.90;;;0.90;;
12124;SDS011;6126;57.908;16.490;2022-09-16T16:09:32;1.48;;;0.77;;
12124;SDS011;6126;57.908;16.490;2022-09-16T16:12:08;0.60;;;0.57;;
12124;SDS011;6126;57.908;16.490;2022-09-16T16:14:40;0.50;;;0.50;;
12124;SDS011;6126;57.908;16.490;2022-09-16T16:19:38;1.35;;;0.77;;
12124;SDS011;6126;57.908;16.490;2022-09-16T16:22:09;0.40;;;0.40;;
12124;SDS011;6126;57.908;16.490;2022-09-16T16:24:36;0.50;;;0.50;;
12124;SDS011;6126;57.908;16.490;2022-09-16T16:27:02;1.70;;;1.13;;
12124;SDS011;6126;57.908;16.490;2022-09-16T16:29:28;0.30;;;0.30;;
12124;SDS011;6126;57.908;16.490;2022-09-16T16:34:39;1.05;;;0.90;;
12124;SDS011;6126;57.908;16.490;2022-09-16T16:37:12;1.25;;;1.15;;
12124;SDS011;6126;57.908;16.490;2022-09-16T16:39:41;0.70;;;0.70;;
12124;SDS011;6126;57.908;16.490;2022-09-16T16:42:10;0.70;;;0.70;;
12124;SDS011;6126;57.908;16.490;2022-09-16T16:44:37;0.80;;;0.80;;
12124;SDS011;6126;57.908;16.490;2022-09-16T16:47:04;0.60;;;0.60;;
12124;SDS011;6126;57.908;16.490;2022-09-16T16:49:32;0.50;;;0.50;;
12124;SDS011;6126;57.908;16.490;2022-09-16T16:51:59;3.10;;;2.38;;
12124;SDS011;6126;57.908;16.490;2022-09-16T16:54:25;5.22;;;3.85;;
12124;SDS011;6126;57.908;16.490;2022-09-16T16:56:52;6.43;;;4.13;;
12124;SDS011;6126;57.908;16.490;2022-09-16T16:59:19;7.07;;;4.63;;
12124;SDS011;6126;57.908;16.490;2022-09-16T17:01:47;3.85;;;2.20;;
12124;SDS011;6126;57.908;16.490;2022-09-16T17:04:17;6.82;;;4.72;;
12124;SDS011;6126;57.908;16.490;2022-09-16T17:06:43;2.83;;;2.08;;
12124;SDS011;6126;57.908;16.490;2022-09-16T17:09:09;0.90;;;0.90;;
12124;SDS011;6126;57.908;16.490;2022-09-16T17:11:36;2.97;;;1.90;;
12124;SDS011;6126;57.908;16.490;2022-09-16T17:14:15;1.55;;;1.38;;
12124;SDS011;6126;57.908;16.490;2022-09-16T17:16:41;3.78;;;2.45;;
12124;SDS011;6126;57.908;16.490;2022-09-16T17:19:08;2.20;;;2.00;;
12124;SDS011;6126;57.908;16.490;2022-09-16T17:21:35;4.50;;;2.13;;
12124;SDS011;6126;57.908;16.490;2022-09-16T17:24:01;0.88;;;0.80;;
12124;SDS011;6126;57.908;16.490;2022-09-16T17:26:27;0.82;;;0.73;;
12124;SDS011;6126;57.908;16.490;2022-09-16T17:28:53;1.27;;;0.68;;
12124;SDS011;6126;57.908;16.490;2022-09-16T17:31:23;0.50;;;0.50;;
12124;SDS011;6126;57.908;16.490;2022-09-16T17:33:57;1.55;;;0.50;;
12124;SDS011;6126;57.908;16.490;2022-09-16T17:36:30;0.82;;;0.50;;
12124;SDS011;6126;57.908;16.490;2022-09-16T17:39:04;0.80;;;0.80;;
12124;SDS011;6126;57.908;16.490;2022-09-16T17:41:38;0.70;;;0.70;;
12124;SDS011;6126;57.908;16.490;2022-09-16T17:44:07;0.30;;;0.30;;
12124;SDS011;6126;57.908;16.490;2022-09-16T17:46:36;0.50;;;0.50;;
12124;SDS011;6126;57.908;16.490;2022-09-16T17:49:05;0.93;;;0.50;;
12124;SDS011;6126;57.908;16.490;2022-09-16T17:51:57;1.40;;;1.10;;
12124;SDS011;6126;57.908;16.490;2022-09-16T17:54:23;2.00;;;1.33;;
12124;SDS011;6126;57.908;16.490;2022-09-16T17:56:49;2.30;;;1.60;;
12124;SDS011;6126;57.908;16.490;2022-09-16T17:59:15;5.95;;;3.45;;
12124;SDS011;6126;57.908;16.490;2022-09-16T18:01:42;2.33;;;2.13;;
12124;SDS011;6126;57.908;16.490;2022-09-16T18:04:09;1.08;;;0.55;;
12124;SDS011;6126;57.908;16.490;2022-09-16T18:06:42;2.00;;;1.83;;
12124;SDS011;6126;57.908;16.490;2022-09-16T18:09:10;0.60;;;0.60;;
12124;SDS011;6126;57.908;16.490;2022-09-16T18:11:40;2.15;;;1.15;;
12124;SDS011;6126;57.908;16.490;2022-09-16T18:14:06;0.95;;;0.88;;
12124;SDS011;6126;57.908;16.490;2022-09-16T18:16:35;4.82;;;1.90;;
12124;SDS011;6126;57.908;16.490;2022-09-16T18:19:02;0.80;;;0.52;;
12124;SDS011;6126;57.908;16.490;2022-09-16T18:21:28;0.77;;;0.50;;
12124;SDS011;6126;57.908;16.490;2022-09-16T18:23:56;0.30;;;0.30;;
12124;SDS011;6126;57.908;16.490;2022-09-16T18:26:25;0.52;;;0.45;;
12124;SDS011;6126;57.908;16.490;2022-09-16T18:28:52;0.63;;;0.63;;
12124;SDS011;6126;57.908;16.490;2022-09-16T18:31:21;0.68;;;0.68;;
12124;SDS011;6126;57.908;16.490;2022-09-16T18:33:54;0.43;;;0.43;;
12124;SDS011;6126;57.908;16.490;2022-09-16T18:36:21;0.40;;;0.40;;
12124;SDS011;6126;57.908;16.490;2022-09-16T18:38:53;1.08;;;0.68;;
12124;SDS011;6126;57.908;16.490;2022-09-16T18:41:22;0.30;;;0.30;;
12124;SDS011;6126;57.908;16.490;2022-09-16T18:43:53;1.20;;;0.90;;
12124;SDS011;6126;57.908;16.490;2022-09-16T18:46:22;9.25;;;5.03;;
12124;SDS011;6126;57.908;16.490;2022-09-16T18:48:59;7.25;;;4.13;;
12124;SDS011;6126;57.908;16.490;2022-09-16T18:51:27;1.58;;;1.30;;
12124;SDS011;6126;57.908;16.490;2022-09-16T18:53:57;1.17;;;1.08;;
12124;SDS011;6126;57.908;16.490;2022-09-16T18:56:27;1.20;;;0.70;;
12124;SDS011;6126;57.908;16.490;2022-09-16T18:59:00;2.92;;;1.70;;
12124;SDS011;6126;57.908;16.490;2022-09-16T19:01:36;8.52;;;3.50;;
12124;SDS011;6126;57.908;16.490;2022-09-16T19:04:05;5.93;;;3.55;;
12124;SDS011;6126;57.908;16.490;2022-09-16T19:06:37;3.28;;;1.92;;